This is the latest recevied weather packets stored in our database for station/object EA1FWM-13. If no packets are shown the sender has not sent any weather packets the latest 10 day(s).
| Time | Temp. | Humidity | Pressure | Rain* | Wind** | Luminosity | Snow |
|---|---|---|---|---|---|---|---|
| 1777621925 | 17.78° C | 75% | 1022.1 hPa | - | - | - | - |
| 1777621024 | 15° C | 85% | 1022.1 hPa | - | - | - | - |
| 1777620123 | 13.89° C | 88% | 1022 hPa | - | - | - | - |
| 1777619222 | 13.33° C | 91% | 1021.9 hPa | - | - | - | - |
| 1777618321 | 13.33° C | 91% | 1021.8 hPa | - | - | - | - |
| 1777617421 | 12.78° C | 93% | 1021.9 hPa | - | - | - | - |
| 1777616520 | 12.22° C | 93% | 1021.8 hPa | - | - | - | - |
| 1777615619 | 11.67° C | 94% | 1021.7 hPa | - | - | - | - |
| 1777614718 | 11.67° C | 94% | 1021.7 hPa | - | - | - | - |
| 1777613817 | 11.67° C | 94% | 1021.7 hPa | - | - | - | - |
| 1777612916 | 11.67° C | 94% | 1021.7 hPa | - | - | - | - |
| 1777612015 | 11.67° C | 94% | 1021.6 hPa | - | - | - | - |
| 1777611114 | 11.67° C | 94% | 1021.5 hPa | - | - | - | - |
| 1777610213 | 11.67° C | 94% | 1021.6 hPa | - | - | - | - |
| 1777609312 | 11.67° C | 94% | 1021.6 hPa | - | - | - | - |
| 1777608411 | 11.67° C | 93% | 1021.6 hPa | - | - | - | - |
| 1777607510 | 12.22° C | 94% | 1021.6 hPa | - | - | - | - |
| 1777606610 | 12.22° C | 93% | 1021.7 hPa | - | - | - | - |
| 1777605709 | 12.22° C | 93% | 1021.6 hPa | - | - | - | - |
| 1777604808 | 12.22° C | 93% | 1021.7 hPa | - | - | - | - |
| 1777603907 | 12.22° C | 93% | 1021.6 hPa | - | - | - | - |
| 1777603006 | 12.22° C | 93% | 1021.8 hPa | - | - | - | - |
| 1777602105 | 12.22° C | 92% | 1021.8 hPa | - | - | - | - |
| 1777601204 | 12.22° C | 92% | 1021.7 hPa | - | - | - | - |
| 1777600304 | 12.22° C | 93% | 1021.8 hPa | - | - | - | - |
* Rain since midnight (hover to see other rain measurements)
** Current wind speed in m/s (hover to see current wind gust speed)